Nearby METAR Reports

 

ENRY - Rygge (nor-Afb), Norway
Distance from station: SØ 12km
Oppdatert: 27/05/2018 11:20
Klart
Klart
 Vind fra ØSØ
Vind: ØSØ 20 km/h
Temperatur: 24°C
Duggpunkt: 8°C
Fuktighet: 36%
Barometer: 1030 hPa
Oversikt: Klart
Visibility: greater than 10 km
2018/05/27 09:20 ENRY 270920Z 11011KT CAVOK 24/08 Q1030
ENTO - Torp (civ/Nor-Af, Norway
Distance from station: SV 34km
Oppdatert: 27/05/2018 11:20
Klart
Klart
 Vind fra ØNØ
Vind: ØNØ 11 km/h
Temperatur: 23°C
Duggpunkt: 10°C
Fuktighet: 44%
Barometer: 1030 hPa
Oversikt: Klart
Visibility: greater than 10 km
2018/05/27 09:20 ENTO 270920Z 06006KT 010V110 CAVOK 23/10 Q1030
 
ENNO - Notodden, Norway
Distance from station: V 80km
Oppdatert: 26/05/2018 15:50
NOT Current
Klart
Klart
 Vind fra SØ
Vind: SØ 11 km/h
Temperatur: 28°C
Duggpunkt: 7°C
Fuktighet: 26%
Barometer: 1026 hPa
Oversikt: Klart
Visibility: greater than 10 km
2018/05/26 13:50 ENNO 261350Z 13006KT 100V160 CAVOK 28/07 Q1026
ENGM - Oslo/Gardermoen, Norway
Distance from station: NNØ 88km
Oppdatert: 27/05/2018 11:20
Klart
Klart
 Vind fra S
Vind: S 7 km/h
Temperatur: 22°C
Duggpunkt: 6°C
Fuktighet: 36%
Barometer: 1031 hPa
Oversikt: Klart
Visibility: greater than 10 km
2018/05/27 09:20 ENGM 270920Z 18004KT 100V240 CAVOK 22/06 Q1031 NOSIG
 
ESOK - Karlstad North, Sweden
Distance from station: Ø 153km
Oppdatert: 01/01/1970 01:00
NOT Current
unable to load ESOK data RC=404 Not Found
unable to load ESOK data RC=404 Not Found
 
ESST - Torsby, Sweden
Distance from station: ØNØ 154km
Oppdatert: 27/05/2018 11:20

 Vind fra ØSØ
Vind: ØSØ 7 km/h
Temperatur: 23°C
Duggpunkt: 7°C
Fuktighet: 36%
Barometer: 1031 hPa
Visibility: 10 km
2018/05/27 09:20 ESST 270920Z AUTO 12004KT 040V170 9999 ///////// 23/07 Q1031
 
ESGT - Trollhattan (pvt, Sweden
Distance from station: SØ 159km
Oppdatert: 25/05/2018 19:50
NOT Current
Klart
Klart
 Vind fra Ø
Vind: Ø 13 km/h
Temperatur: 24°C
Duggpunkt: 8°C
Fuktighet: 36%
Barometer: 1025 hPa
Oversikt: Klart
Visibility: greater than 10 km
2018/05/25 17:50 ESGT 251750Z 08007KT CAVOK 24/08 Q1025
ESIB - Satenas (swe-Afb, Sweden
Distance from station: SØ 164km
Oppdatert: 27/05/2018 11:20
Klart
Klart
 Vind fra Ø
Vind: Ø 24 km/h
Temperatur: 22°C
Duggpunkt: 10°C
Fuktighet: 47%
Barometer: 1029 hPa
Oversikt: Klart
Visibility: greater than 10 km
2018/05/27 09:20 ESIB 270920Z 09013KT CAVOK 22/10 Q1029